Richfield, Ohio
Current Conditions -  °F | °C
As of 12:41 AM on Tuesday 27 Jan 2015 (Local Time) from KAKR Reporting Station
Light Snow Light Snow  
Wind Chill: 12°   Ceiling: 1500
Heat Index: 20°   Visibility: 2.5mi
Dew Point: 16°   Wind: 6mph
Humidity: 85%   Direction: 320°NW
Pressure: 29.87"   Gusts: NA
Location:  41.24°N, 81.64°W
Report Text: KAKR 270541Z AUTO 32005KT 2 1/2SM -SN BR OVC015 M07/M09 A2987 RMK AO2 CIG 010V020 P0000 T10671089 $
Loading
Personal Weather Stations






























Interactive Weather Map New forecast layout! Learn more

10-Day Weather Forecast

Advertisements
Track Severe Weather on mobile